createdAt,value
2023-05-25T00:00:38.287Z,100051.56
2023-05-25T00:03:10.411Z,100051.98
2023-05-25T00:05:38.524Z,100050.27
2023-05-25T00:08:06.184Z,100055.81
2023-05-25T00:10:33.855Z,100064.20
2023-05-25T00:13:01.651Z,100062.21
2023-05-25T00:15:29.257Z,100055.05
2023-05-25T00:17:57.033Z,100059.30
2023-05-25T00:20:24.875Z,100060.03
2023-05-25T00:22:52.647Z,100060.33
2023-05-25T00:25:21.087Z,100061.04
2023-05-25T00:27:48.698Z,100066.27
2023-05-25T00:30:16.468Z,100075.58
2023-05-25T00:32:44.151Z,100080.21
2023-05-25T00:35:11.917Z,100079.42
2023-05-25T00:37:40.417Z,100081.60
2023-05-25T00:40:15.800Z,100083.39
2023-05-25T00:42:44.239Z,100080.16
2023-05-25T00:45:12.665Z,100077.74
2023-05-25T00:47:41.656Z,100075.77
2023-05-25T00:50:11.300Z,100076.04
2023-05-25T00:52:38.922Z,100075.09
2023-05-25T00:55:11.938Z,100075.77
2023-05-25T00:57:41.782Z,100069.46
2023-05-25T01:00:15.613Z,100062.85
2023-05-25T01:02:48.626Z,100059.02
2023-05-25T01:05:17.705Z,100057.70
2023-05-25T01:07:46.310Z,100055.96
2023-05-25T01:10:15.922Z,100063.96
2023-05-25T01:12:46.297Z,100060.73
2023-05-25T01:15:14.160Z,100061.34
2023-05-25T01:17:44.034Z,100057.45
2023-05-25T01:20:12.663Z,100057.91
2023-05-25T01:23:22.167Z,100059.60
2023-05-25T01:25:56.637Z,100066.38
2023-05-25T01:28:30.192Z,100069.64
2023-05-25T01:30:59.191Z,100072.89
2023-05-25T01:33:28.857Z,100073.67
2023-05-25T01:35:57.106Z,100075.69
2023-05-25T01:38:24.849Z,100072.56
2023-05-25T01:40:52.849Z,100073.17
2023-05-25T01:43:20.636Z,100072.14
2023-05-25T01:45:48.466Z,100069.06
2023-05-25T01:48:25.313Z,100071.03
2023-05-25T01:51:08.112Z,100068.65
2023-05-25T01:53:53.094Z,100068.10
2023-05-25T01:56:23.619Z,100069.39
2023-05-25T01:58:53.003Z,100070.35
2023-05-25T02:01:22.380Z,100065.85
2023-05-25T02:03:50.478Z,100069.09
2023-05-25T02:06:18.258Z,100070.02
2023-05-25T02:08:46.018Z,100079.71
2023-05-25T02:11:14.818Z,100081.11
2023-05-25T02:13:42.657Z,100081.77
2023-05-25T02:16:10.299Z,100080.52
2023-05-25T02:18:40.139Z,100078.20
2023-05-25T02:21:07.746Z,100075.39
2023-05-25T02:23:35.889Z,100069.22
2023-05-25T02:26:04.108Z,100078.70
2023-05-25T02:28:31.879Z,100074.45
2023-05-25T02:30:59.553Z,100071.34
2023-05-25T02:33:27.197Z,100066.46
2023-05-25T02:35:54.832Z,100067.98
2023-05-25T02:38:22.454Z,100062.77
2023-05-25T02:40:51.062Z,100065.33
2023-05-25T02:43:20.705Z,100069.48
2023-05-25T02:45:48.290Z,100079.05
2023-05-25T02:48:16.041Z,100089.02
2023-05-25T02:50:44.342Z,100096.02
2023-05-25T02:53:14.017Z,100100.96
2023-05-25T02:55:43.834Z,100104.30
2023-05-25T02:58:15.247Z,100108.85
2023-05-25T03:01:01.533Z,100118.60
2023-05-25T03:03:29.688Z,100116.67
2023-05-25T03:05:57.970Z,100114.51
2023-05-25T03:08:25.722Z,100126.73
2023-05-25T03:10:53.815Z,100131.89
2023-05-25T03:13:21.924Z,100126.42
2023-05-25T03:15:49.560Z,100123.52
2023-05-25T03:18:17.386Z,100133.76
2023-05-25T03:20:46.030Z,100138.92
2023-05-25T03:23:13.869Z,100129.55
2023-05-25T03:25:41.656Z,100128.79
2023-05-25T03:28:09.298Z,100138.67
2023-05-25T03:30:36.951Z,100147.58
2023-05-25T03:33:04.697Z,100147.86
2023-05-25T03:35:35.453Z,100143.60
2023-05-25T03:38:03.069Z,100148.05
2023-05-25T03:40:30.726Z,100153.41
2023-05-25T03:42:58.441Z,100151.96
2023-05-25T03:45:26.572Z,100153.29
2023-05-25T03:47:54.234Z,100158.63
2023-05-25T03:50:22.245Z,100158.52
2023-05-25T03:52:50.000Z,100163.48
2023-05-25T03:55:17.881Z,100162.38
2023-05-25T03:57:45.910Z,100161.73
2023-05-25T04:00:14.488Z,100155.36
2023-05-25T04:02:43.811Z,100161.05
2023-05-25T04:05:11.713Z,100161.19
2023-05-25T04:07:41.065Z,100155.45
2023-05-25T04:10:09.285Z,100156.56
2023-05-25T04:12:37.551Z,100152.81
2023-05-25T04:15:09.292Z,100151.52
2023-05-25T04:17:47.601Z,100145.30
2023-05-25T04:20:15.591Z,100144.27
2023-05-25T04:22:45.181Z,100138.80
2023-05-25T04:25:13.450Z,100140.20
2023-05-25T04:27:43.597Z,100140.55
2023-05-25T04:30:12.075Z,100139.39
2023-05-25T04:33:06.074Z,100142.97
2023-05-25T04:35:37.194Z,100152.80
2023-05-25T04:38:05.401Z,100146.63
2023-05-25T04:40:35.754Z,100150.55
2023-05-25T04:43:05.351Z,100153.11
2023-05-25T04:45:33.618Z,100158.42
2023-05-25T04:48:03.313Z,100158.79
2023-05-25T04:50:31.450Z,100154.38
2023-05-25T04:52:59.118Z,100156.73
2023-05-25T04:55:26.722Z,100157.15
2023-05-25T04:57:55.259Z,100157.44
2023-05-25T05:00:23.869Z,100156.94
2023-05-25T05:02:57.364Z,100158.20
2023-05-25T05:05:25.955Z,100156.32
2023-05-25T05:07:56.000Z,100157.19
2023-05-25T05:10:23.967Z,100159.09
2023-05-25T05:12:56.223Z,100158.23
2023-05-25T05:15:24.004Z,100159.02
2023-05-25T05:17:51.953Z,100155.23
2023-05-25T05:20:19.722Z,100153.96
2023-05-25T05:22:47.444Z,100149.84
2023-05-25T05:25:15.139Z,100150.12
2023-05-25T05:27:42.737Z,100153.73
2023-05-25T05:30:17.459Z,100158.64
2023-05-25T05:32:46.965Z,100159.96
2023-05-25T05:35:15.846Z,100160.95
2023-05-25T05:37:47.991Z,100161.39
2023-05-25T05:40:15.993Z,100158.55
2023-05-25T05:42:43.671Z,100161.45
2023-05-25T05:45:12.824Z,100165.91
2023-05-25T05:47:40.606Z,100172.48
2023-05-25T05:50:08.890Z,100173.83
2023-05-25T05:52:37.839Z,100181.69
2023-05-25T05:55:06.594Z,100176.77
2023-05-25T05:57:34.495Z,100170.10
2023-05-25T06:00:03.836Z,100169.19
2023-05-25T06:02:31.907Z,100171.88
2023-05-25T06:04:59.571Z,100173.14
2023-05-25T06:07:29.211Z,100173.30
2023-05-25T06:09:58.771Z,100177.70
2023-05-25T06:12:27.875Z,100178.80
2023-05-25T06:14:55.600Z,100175.45
2023-05-25T06:17:24.558Z,100170.42
2023-05-25T06:19:54.392Z,100171.01
2023-05-25T06:22:24.177Z,100169.15
2023-05-25T06:24:54.027Z,100169.64
2023-05-25T06:27:23.399Z,100171.88
2023-05-25T06:29:51.016Z,100170.42
2023-05-25T06:32:18.690Z,100169.56
2023-05-25T06:34:46.956Z,100174.38
2023-05-25T06:37:15.867Z,100173.67
2023-05-25T06:39:43.769Z,100170.59
2023-05-25T06:42:11.961Z,100173.54
2023-05-25T06:44:43.935Z,100174.45
2023-05-25T06:47:11.797Z,100174.22
2023-05-25T06:49:39.406Z,100177.90
2023-05-25T06:52:07.577Z,100181.06
2023-05-25T06:54:35.233Z,100176.57
2023-05-25T06:57:03.206Z,100175.73
2023-05-25T06:59:31.250Z,100173.25
2023-05-25T07:02:00.225Z,100169.77
2023-05-25T07:04:28.855Z,100169.08
2023-05-25T07:06:56.471Z,100169.64
2023-05-25T07:09:24.138Z,100171.85
2023-05-25T07:11:51.741Z,100168.34
2023-05-25T07:14:19.328Z,100170.58
2023-05-25T07:16:47.254Z,100172.50
2023-05-25T07:19:14.871Z,100166.42
2023-05-25T07:21:43.391Z,100168.79
2023-05-25T07:24:12.812Z,100168.23
2023-05-25T07:26:40.675Z,100163.98
2023-05-25T07:29:08.364Z,100162.87
2023-05-25T07:31:36.643Z,100160.70
2023-05-25T07:34:04.309Z,100163.79
2023-05-25T07:36:31.946Z,100164.70
2023-05-25T07:38:59.804Z,100166.30
2023-05-25T07:41:27.592Z,100165.89
2023-05-25T07:43:55.260Z,100163.38
2023-05-25T07:46:25.441Z,100159.17
2023-05-25T07:48:55.105Z,100160.08
2023-05-25T07:51:29.202Z,100154.54
2023-05-25T07:53:57.412Z,100153.86
2023-05-25T07:56:26.731Z,100154.17
2023-05-25T07:58:54.352Z,100153.86
2023-05-25T08:01:26.273Z,100148.81
2023-05-25T08:03:55.356Z,100146.43
2023-05-25T08:06:23.663Z,100154.69
2023-05-25T08:08:52.266Z,100151.42
2023-05-25T08:11:31.476Z,100149.92
2023-05-25T08:14:00.466Z,100150.68
2023-05-25T08:16:28.279Z,100154.05
2023-05-25T08:18:55.979Z,100155.05
2023-05-25T08:21:23.501Z,100156.00
2023-05-25T08:23:51.549Z,100156.48
2023-05-25T08:26:37.897Z,100155.30
2023-05-25T08:29:07.095Z,100154.95
2023-05-25T08:31:35.877Z,100155.58
2023-05-25T08:34:03.530Z,100158.52
2023-05-25T08:36:36.035Z,100160.84
2023-05-25T08:39:04.924Z,100156.03
2023-05-25T08:41:36.128Z,100156.35
2023-05-25T08:44:06.974Z,100156.52
2023-05-25T08:46:35.002Z,100155.14
2023-05-25T08:49:23.261Z,100152.25
2023-05-25T08:51:55.946Z,100154.54
2023-05-25T08:54:29.506Z,100152.71
2023-05-25T08:57:06.268Z,100154.07
2023-05-25T08:59:58.861Z,100160.71
2023-05-25T09:02:33.831Z,100162.04
2023-05-25T09:05:02.311Z,100160.02
2023-05-25T09:07:31.308Z,100158.89
2023-05-25T09:10:01.309Z,100155.19
2023-05-25T09:12:32.620Z,100160.80
2023-05-25T09:15:01.058Z,100163.77
2023-05-25T09:17:28.812Z,100167.50
2023-05-25T09:19:56.553Z,100161.80
2023-05-25T09:22:24.298Z,100156.23
2023-05-25T09:24:52.612Z,100154.90
2023-05-25T09:27:23.160Z,100159.23
2023-05-25T09:29:51.941Z,100156.80
2023-05-25T09:32:20.178Z,100148.68
2023-05-25T09:34:48.003Z,100147.97
2023-05-25T09:37:17.440Z,100138.66
2023-05-25T09:39:46.024Z,100131.59
2023-05-25T09:42:13.753Z,100119.43
2023-05-25T09:44:43.034Z,100106.23
2023-05-25T09:47:11.018Z,100095.48
2023-05-25T09:49:38.823Z,100084.75
2023-05-25T09:52:06.602Z,100083.52
2023-05-25T09:54:34.172Z,100077.05
2023-05-25T09:57:04.200Z,100082.55
2023-05-25T09:59:32.340Z,100085.09
2023-05-25T10:02:00.036Z,100083.31
2023-05-25T10:04:28.106Z,100084.67
2023-05-25T10:06:57.133Z,100080.56
2023-05-25T10:09:28.890Z,100077.20
2023-05-25T10:12:00.222Z,100066.82
2023-05-25T10:14:30.242Z,100064.06
2023-05-25T10:16:59.994Z,100066.33
2023-05-25T10:19:42.194Z,100065.50
2023-05-25T10:22:28.870Z,100059.31
2023-05-25T10:25:26.196Z,100062.08
2023-05-25T10:27:59.859Z,100059.33
2023-05-25T10:30:28.048Z,100057.93
2023-05-25T10:32:57.446Z,100058.88
2023-05-25T10:35:25.626Z,100058.27
2023-05-25T10:37:56.029Z,100053.27
2023-05-25T10:40:24.323Z,100050.30
2023-05-25T10:42:53.495Z,100049.03
2023-05-25T10:45:22.666Z,100048.38
2023-05-25T10:47:51.300Z,100049.48
2023-05-25T10:50:29.962Z,100045.50
2023-05-25T10:53:00.392Z,100038.98
2023-05-25T10:55:41.481Z,100033.42
2023-05-25T10:58:13.742Z,100030.99
2023-05-25T11:00:43.836Z,100027.02
2023-05-25T11:03:11.622Z,100030.36
2023-05-25T11:05:40.223Z,100032.84
2023-05-25T11:08:10.274Z,100034.48
2023-05-25T11:10:50.046Z,100036.63
2023-05-25T11:13:39.729Z,100036.84
2023-05-25T11:16:24.665Z,100034.11
2023-05-25T11:18:58.120Z,100032.91
2023-05-25T11:21:30.440Z,100027.95
2023-05-25T11:23:59.825Z,100025.29
2023-05-25T11:26:31.572Z,100019.06
2023-05-25T11:29:02.191Z,100020.48
2023-05-25T11:31:39.649Z,100016.25
2023-05-25T11:34:12.065Z,100012.45
2023-05-25T11:36:39.875Z,100006.42
2023-05-25T11:39:17.587Z,100004.75
2023-05-25T11:41:55.579Z,99998.64
2023-05-25T11:44:31.165Z,100001.25
2023-05-25T11:47:02.154Z,100000.16
2023-05-25T11:49:29.827Z,99998.64
2023-05-25T11:51:58.083Z,99997.64
2023-05-25T11:54:27.840Z,99990.89
2023-05-25T11:56:59.634Z,99992.54
2023-05-25T11:59:29.759Z,99990.79
2023-05-25T12:02:03.591Z,99995.57
2023-05-25T12:04:35.368Z,99990.28
2023-05-25T12:07:08.151Z,99986.86
2023-05-25T12:09:37.005Z,99980.84
2023-05-25T12:12:05.105Z,99977.72
2023-05-25T12:14:36.290Z,99976.81
2023-05-25T12:17:04.319Z,99977.83
2023-05-25T12:19:32.606Z,99979.55
2023-05-25T12:22:00.352Z,99983.59
2023-05-25T12:24:28.034Z,99984.10
2023-05-25T12:26:59.016Z,99984.43
2023-05-25T12:29:26.710Z,99980.48
2023-05-25T12:32:03.651Z,99980.77
2023-05-25T12:34:31.489Z,99985.95
2023-05-25T12:36:59.315Z,99987.80
2023-05-25T12:39:26.895Z,99988.14
2023-05-25T12:41:55.251Z,99987.21
2023-05-25T12:44:32.955Z,99987.41
2023-05-25T12:47:20.383Z,99985.83
2023-05-25T12:49:53.285Z,99982.59
2023-05-25T12:52:34.716Z,99977.36
2023-05-25T12:55:30.293Z,99977.33
2023-05-25T12:57:59.013Z,99969.75
2023-05-25T13:00:32.566Z,99958.21
2023-05-25T13:03:00.662Z,99951.06
2023-05-25T13:05:30.724Z,99943.19
2023-05-25T13:08:00.041Z,99939.55
2023-05-25T13:10:29.703Z,99932.08
2023-05-25T13:12:58.727Z,99927.60
2023-05-25T13:15:27.155Z,99923.34
2023-05-25T13:17:58.894Z,99915.41
2023-05-25T13:20:30.785Z,99905.31
2023-05-25T13:22:58.641Z,99896.80
2023-05-25T13:25:27.892Z,99900.80
2023-05-25T13:27:58.345Z,99906.93
2023-05-25T13:30:26.857Z,99906.91
2023-05-25T13:32:54.676Z,99911.21
2023-05-25T13:35:41.920Z,99915.04
2023-05-25T13:38:10.966Z,99936.27
2023-05-25T13:40:38.929Z,99958.02
2023-05-25T13:43:06.890Z,99969.92
2023-05-25T13:45:34.476Z,99963.24
2023-05-25T13:48:02.296Z,99973.53
2023-05-25T13:50:30.077Z,99985.05
2023-05-25T13:52:57.856Z,99986.14
2023-05-25T13:55:25.598Z,99977.42
2023-05-25T13:57:53.882Z,99978.73
2023-05-25T14:00:22.061Z,99984.84
2023-05-25T14:02:49.831Z,99981.73
2023-05-25T14:05:19.988Z,99984.55
2023-05-25T14:07:47.920Z,99970.55
2023-05-25T14:10:16.279Z,99979.20
2023-05-25T14:12:44.708Z,99992.96
2023-05-25T14:15:12.332Z,99970.46
2023-05-25T14:17:40.296Z,99968.08
2023-05-25T14:20:08.462Z,99964.59
2023-05-25T14:22:36.142Z,99959.44
2023-05-25T14:25:04.360Z,99958.85
2023-05-25T14:27:31.970Z,99968.66
2023-05-25T14:29:59.600Z,99971.05
2023-05-25T14:32:27.221Z,99977.97
2023-05-25T14:34:54.882Z,99985.79
2023-05-25T14:37:22.562Z,99993.63
2023-05-25T14:39:50.130Z,100007.02
2023-05-25T14:42:17.805Z,100016.25
2023-05-25T14:44:45.712Z,100014.92
2023-05-25T14:47:13.503Z,100017.54
2023-05-25T14:49:41.124Z,100018.72
2023-05-25T14:52:08.849Z,100019.16
2023-05-25T14:54:36.517Z,100023.30
2023-05-25T14:57:04.240Z,100031.95
2023-05-25T14:59:31.836Z,100042.58
2023-05-25T15:01:59.422Z,100042.94
2023-05-25T15:04:28.619Z,100037.27
2023-05-25T15:06:56.571Z,100035.23
2023-05-25T15:09:24.252Z,100026.70
2023-05-25T15:11:51.832Z,100020.77
2023-05-25T15:14:19.528Z,100023.17
2023-05-25T15:16:47.352Z,100025.77
2023-05-25T15:19:16.780Z,100028.26
2023-05-25T15:21:45.574Z,100038.98
2023-05-25T15:24:16.891Z,100048.55
2023-05-25T15:26:44.503Z,100045.44
2023-05-25T15:29:12.251Z,100048.17
2023-05-25T15:31:40.129Z,100047.65
2023-05-25T15:34:09.242Z,100042.75
2023-05-25T15:36:37.473Z,100039.80
2023-05-25T15:39:06.374Z,100041.75
2023-05-25T15:41:34.070Z,100051.56
2023-05-25T15:44:01.728Z,100057.67
2023-05-25T15:46:29.636Z,100059.12
2023-05-25T15:48:57.285Z,100057.23
2023-05-25T15:51:25.557Z,100058.11
2023-05-25T15:53:54.954Z,100057.88
2023-05-25T15:56:23.239Z,100061.30
2023-05-25T15:58:51.066Z,100060.03
2023-05-25T16:01:18.900Z,100064.19
2023-05-25T16:03:48.498Z,100067.61
2023-05-25T16:06:16.365Z,100072.70
2023-05-25T16:08:48.827Z,100073.23
2023-05-25T16:14:34.860Z,100068.09
2023-05-25T16:17:03.143Z,100059.98
2023-05-25T16:20:12.316Z,100060.65
2023-05-25T16:22:50.170Z,100048.59
2023-05-25T16:26:27.621Z,100046.08
2023-05-25T16:28:56.694Z,100057.02
2023-05-25T16:32:04.075Z,100062.10
2023-05-25T16:34:41.122Z,100068.05
2023-05-25T16:37:56.655Z,100069.33
2023-05-25T16:40:27.184Z,100075.38
2023-05-25T16:42:54.903Z,100073.55
2023-05-25T16:45:22.601Z,100067.30
2023-05-25T16:47:50.189Z,100075.80
2023-05-25T16:50:18.737Z,100083.59
2023-05-25T16:52:46.359Z,100089.95
2023-05-25T16:55:19.034Z,100094.34
2023-05-25T16:57:49.217Z,100102.52
2023-05-25T17:00:25.529Z,100111.86
2023-05-25T17:02:58.181Z,100119.67
2023-05-25T17:05:30.396Z,100129.41
2023-05-25T17:08:00.151Z,100127.63
2023-05-25T17:11:00.170Z,100124.65
2023-05-25T17:13:37.097Z,100122.10
2023-05-25T17:16:16.120Z,100118.39
2023-05-25T17:18:50.588Z,100123.39
2023-05-25T17:21:26.689Z,100119.20
2023-05-25T17:24:42.123Z,100126.54
2023-05-25T17:27:37.803Z,100115.08
2023-05-25T17:30:19.056Z,100100.32
2023-05-25T17:33:01.692Z,100100.19
2023-05-25T17:35:29.771Z,100105.47
2023-05-25T17:38:06.249Z,100111.73
2023-05-25T17:40:33.890Z,100104.42
2023-05-25T17:43:01.487Z,100102.41
2023-05-25T17:45:29.186Z,100105.50
2023-05-25T17:47:57.524Z,100108.34
2023-05-25T17:50:25.763Z,100111.70
2023-05-25T17:52:53.505Z,100114.52
2023-05-25T17:55:21.242Z,100117.96
2023-05-25T17:57:48.857Z,100126.66
2023-05-25T18:00:20.132Z,100127.27
2023-05-25T18:02:49.559Z,100126.77
2023-05-25T18:05:17.407Z,100128.95
2023-05-25T18:07:44.982Z,100128.17
2023-05-25T18:10:14.739Z,100126.39
2023-05-25T18:12:44.704Z,100125.08
2023-05-25T18:15:13.106Z,100125.72
2023-05-25T18:17:41.055Z,100117.90
2023-05-25T18:20:12.227Z,100113.48
2023-05-25T18:22:40.168Z,100109.00
2023-05-25T18:25:08.083Z,100106.32
2023-05-25T18:27:35.740Z,100112.06
2023-05-25T18:30:03.416Z,100112.59
2023-05-25T18:32:31.021Z,100111.18
2023-05-25T18:34:58.897Z,100107.27
2023-05-25T18:37:26.994Z,100103.67
2023-05-25T18:39:54.563Z,100103.33
2023-05-25T18:42:22.161Z,100109.34
2023-05-25T18:44:49.800Z,100112.54
2023-05-25T18:47:18.500Z,100110.85
2023-05-25T18:49:47.213Z,100107.83
2023-05-25T18:52:14.954Z,100101.30
2023-05-25T18:54:42.647Z,100100.83
2023-05-25T18:57:10.238Z,100098.22
2023-05-25T18:59:37.846Z,100094.33
2023-05-25T19:02:05.746Z,100090.88
2023-05-25T19:04:34.215Z,100085.80
2023-05-25T19:07:01.773Z,100081.96
2023-05-25T19:09:29.335Z,100080.31
2023-05-25T19:11:56.951Z,100076.08
2023-05-25T19:14:24.607Z,100077.88
2023-05-25T19:16:52.356Z,100074.55
2023-05-25T19:19:19.956Z,100076.80
2023-05-25T19:21:47.574Z,100075.81
2023-05-25T19:24:15.259Z,100070.48
2023-05-25T19:26:42.852Z,100065.18
2023-05-25T19:29:10.522Z,100067.73
2023-05-25T19:31:38.164Z,100067.81
2023-05-25T19:34:06.331Z,100065.19
2023-05-25T19:36:33.935Z,100062.73
2023-05-25T19:39:01.528Z,100063.20
2023-05-25T19:41:29.179Z,100064.36
2023-05-25T19:43:56.775Z,100059.61
2023-05-25T19:46:24.373Z,100057.95
2023-05-25T19:48:52.108Z,100057.08
2023-05-25T19:51:19.769Z,100057.13
2023-05-25T19:53:49.222Z,100053.25
2023-05-25T19:56:16.853Z,100044.22
2023-05-25T19:58:44.698Z,100041.20
2023-05-25T20:01:12.551Z,100039.36
2023-05-25T20:03:40.387Z,100040.31
2023-05-25T20:06:08.230Z,100036.73
2023-05-25T20:08:37.067Z,100034.95
2023-05-25T20:11:04.722Z,100035.98
2023-05-25T20:13:32.992Z,100035.11
2023-05-25T20:16:01.111Z,100030.60
2023-05-25T20:18:28.768Z,100031.79
2023-05-25T20:20:56.416Z,100026.70
2023-05-25T20:23:23.985Z,100030.95
2023-05-25T20:25:51.682Z,100029.73
2023-05-25T20:28:19.871Z,100032.15
2023-05-25T20:30:47.703Z,100033.15
2023-05-25T20:33:15.761Z,100030.70
2023-05-25T20:35:43.560Z,100027.66
2023-05-25T20:38:11.417Z,100028.92
2023-05-25T20:40:39.090Z,100025.41
2023-05-25T20:43:06.686Z,100029.78
2023-05-25T20:45:34.311Z,100028.02
2023-05-25T20:48:04.231Z,100025.25
2023-05-25T20:50:32.021Z,100021.55
2023-05-25T20:52:59.621Z,100019.26
2023-05-25T20:55:27.237Z,100019.29
2023-05-25T20:57:56.919Z,100023.06
2023-05-25T21:00:24.559Z,100022.91
2023-05-25T21:02:52.209Z,100022.90
2023-05-25T21:05:19.936Z,100022.15
2023-05-25T21:07:48.936Z,100024.63
2023-05-25T21:10:16.805Z,100019.42
2023-05-25T21:12:44.478Z,100018.18
2023-05-25T21:15:12.106Z,100020.05
2023-05-25T21:17:39.738Z,100027.26
2023-05-25T21:20:07.944Z,100034.52
2023-05-25T21:22:35.733Z,100031.43
2023-05-25T21:25:04.806Z,100027.11
2023-05-25T21:27:32.389Z,100026.11
2023-05-25T21:30:00.036Z,100032.14
2023-05-25T21:32:27.670Z,100035.84
2023-05-25T21:34:55.469Z,100039.46
2023-05-25T21:37:23.062Z,100040.83
2023-05-25T21:39:50.787Z,100043.67
2023-05-25T21:42:18.458Z,100045.64
2023-05-25T21:44:46.129Z,100044.55
2023-05-25T21:47:13.827Z,100053.05
2023-05-25T21:49:41.656Z,100051.73
2023-05-25T21:52:19.713Z,100052.41
2023-05-25T21:54:47.300Z,100044.00
2023-05-25T21:57:15.514Z,100041.89
2023-05-25T21:59:43.121Z,100044.13
2023-05-25T22:02:11.329Z,100042.73
2023-05-25T22:04:39.485Z,100045.59
2023-05-25T22:07:07.024Z,100042.18
2023-05-25T22:09:34.759Z,100049.45
2023-05-25T22:12:02.490Z,100055.48
2023-05-25T22:14:30.038Z,100053.51
2023-05-25T22:16:57.696Z,100056.77
2023-05-25T22:19:25.396Z,100065.29
2023-05-25T22:21:53.581Z,100070.88
2023-05-25T22:24:21.304Z,100065.83
2023-05-25T22:26:48.905Z,100059.14
2023-05-25T22:29:16.529Z,100059.92
2023-05-25T22:31:44.107Z,100061.26
2023-05-25T22:34:11.791Z,100062.05
2023-05-25T22:36:39.493Z,100063.84
2023-05-25T22:39:07.083Z,100065.99
2023-05-25T22:41:34.801Z,100064.63
2023-05-25T22:44:02.469Z,100064.42
2023-05-25T22:46:30.237Z,100059.16
2023-05-25T22:48:57.890Z,100056.48
2023-05-25T22:51:25.510Z,100050.39
2023-05-25T22:53:53.153Z,100048.48
2023-05-25T22:56:21.242Z,100051.55
2023-05-25T22:58:48.822Z,100061.02
2023-05-25T23:01:16.588Z,100062.17
2023-05-25T23:03:44.280Z,100064.13
2023-05-25T23:06:11.914Z,100066.65
2023-05-25T23:08:39.552Z,100064.78
2023-05-25T23:11:07.119Z,100065.23
2023-05-25T23:13:35.973Z,100065.89
2023-05-25T23:16:03.978Z,100076.27
2023-05-25T23:18:31.677Z,100076.81
2023-05-25T23:20:59.285Z,100070.20
2023-05-25T23:23:26.831Z,100074.30
2023-05-25T23:25:54.568Z,100072.84
2023-05-25T23:28:22.141Z,100067.70
2023-05-25T23:30:49.829Z,100067.05
2023-05-25T23:33:18.674Z,100064.34
2023-05-25T23:35:46.622Z,100065.84
2023-05-25T23:38:15.172Z,100057.88
2023-05-25T23:40:42.828Z,100057.53
2023-05-25T23:43:10.888Z,100053.21
2023-05-25T23:45:39.091Z,100054.15
2023-05-25T23:48:06.759Z,100059.81
2023-05-25T23:50:35.916Z,100058.05
2023-05-25T23:53:06.109Z,100058.09
2023-05-25T23:55:33.640Z,100058.38
2023-05-25T23:58:01.200Z,100065.34
